createdAt,value
2023-02-06T00:01:30.520Z,6.20
2023-02-06T00:03:57.639Z,5.73
2023-02-06T00:06:24.746Z,6.30
2023-02-06T00:08:52.078Z,4.73
2023-02-06T00:11:22.169Z,5.27
2023-02-06T00:13:52.290Z,5.33
2023-02-06T00:16:24.084Z,5.80
2023-02-06T00:18:53.341Z,5.73
2023-02-06T00:21:24.493Z,5.93
2023-02-06T00:23:54.816Z,5.30
2023-02-06T00:26:22.687Z,5.57
2023-02-06T00:28:49.571Z,5.03
2023-02-06T00:31:16.848Z,6.30
2023-02-06T00:33:45.848Z,6.37
2023-02-06T00:36:12.918Z,4.43
2023-02-06T00:38:39.962Z,5.50
2023-02-06T00:41:06.943Z,4.93
2023-02-06T00:43:34.067Z,5.87
2023-02-06T00:46:01.230Z,5.83
2023-02-06T00:48:28.364Z,4.90
2023-02-06T00:50:55.661Z,5.50
2023-02-06T00:53:23.159Z,4.80
2023-02-06T00:55:50.176Z,5.07
2023-02-06T00:58:17.112Z,5.00
2023-02-06T01:00:45.489Z,5.13
2023-02-06T01:03:12.828Z,5.00
2023-02-06T01:10:12.980Z,4.03
2023-02-06T01:12:40.854Z,3.13
2023-02-06T01:15:12.331Z,4.83
2023-02-06T01:17:40.859Z,4.23
2023-02-06T01:20:11.310Z,4.03
2023-02-06T01:22:39.443Z,3.23
2023-02-06T01:25:07.081Z,4.47
2023-02-06T01:27:37.405Z,4.17
2023-02-06T01:30:07.667Z,3.87
2023-02-06T01:32:42.050Z,4.03
2023-02-06T01:35:11.679Z,3.30
2023-02-06T01:37:40.382Z,3.37
2023-02-06T01:40:14.113Z,3.33
2023-02-06T01:42:41.615Z,2.77
2023-02-06T01:45:26.253Z,2.90
2023-02-06T01:48:10.919Z,4.03
2023-02-06T01:50:44.985Z,3.77
2023-02-06T01:53:16.036Z,3.50
2023-02-06T01:55:45.704Z,3.63
2023-02-06T01:58:24.160Z,3.67
2023-02-06T02:00:51.283Z,3.87
2023-02-06T02:03:19.880Z,3.80
2023-02-06T02:05:50.648Z,3.77
2023-02-06T02:08:31.741Z,3.80
2023-02-06T02:11:01.880Z,4.00
2023-02-06T02:13:29.044Z,4.50
2023-02-06T02:16:09.887Z,4.40
2023-02-06T02:19:07.453Z,4.03
2023-02-06T02:22:43.807Z,5.30
2023-02-06T02:26:08.687Z,3.67
2023-02-06T02:28:59.198Z,4.27
2023-02-06T02:31:59.480Z,3.80
2023-02-06T02:35:04.540Z,4.17
2023-02-06T02:37:55.385Z,4.37
2023-02-06T02:40:33.468Z,4.33
2023-02-06T02:43:20.232Z,4.93
2023-02-06T02:46:04.741Z,4.83
2023-02-06T02:48:41.201Z,4.43
2023-02-06T02:51:10.534Z,4.50
2023-02-06T02:53:37.948Z,3.37
2023-02-06T02:56:21.041Z,4.00
2023-02-06T02:58:55.052Z,3.43
2023-02-06T03:01:38.150Z,4.63
2023-02-06T03:04:16.330Z,3.40
2023-02-06T03:07:19.265Z,4.43
2023-02-06T03:10:26.946Z,3.20
2023-02-06T03:13:30.521Z,3.80
2023-02-06T03:16:13.840Z,4.00
2023-02-06T03:18:59.862Z,4.87
2023-02-06T03:21:29.658Z,3.97
2023-02-06T03:24:03.187Z,2.97
2023-02-06T03:26:33.482Z,3.60
2023-02-06T03:29:06.849Z,3.27
2023-02-06T03:31:43.195Z,3.60
2023-02-06T03:34:53.383Z,3.30
2023-02-06T03:37:23.213Z,3.60
2023-02-06T03:39:50.322Z,4.07
2023-02-06T03:42:18.959Z,5.23
2023-02-06T03:44:54.967Z,5.07
2023-02-06T03:47:25.509Z,4.30
2023-02-06T03:49:55.960Z,4.27
2023-02-06T03:52:31.740Z,4.03
2023-02-06T03:55:07.084Z,4.57
2023-02-06T03:57:38.041Z,4.40
2023-02-06T04:00:06.887Z,4.30
2023-02-06T04:02:40.802Z,4.60
2023-02-06T04:05:08.677Z,4.00
2023-02-06T04:07:36.357Z,4.70
2023-02-06T04:10:04.254Z,4.47
2023-02-06T04:12:31.416Z,4.77
2023-02-06T04:14:58.440Z,4.20
2023-02-06T04:17:43.208Z,4.97
2023-02-06T04:20:13.847Z,3.60
2023-02-06T04:22:41.559Z,3.87
2023-02-06T04:25:09.107Z,3.97
2023-02-06T04:27:38.005Z,3.93
2023-02-06T04:30:07.237Z,3.77
2023-02-06T04:32:34.224Z,4.20
2023-02-06T04:35:01.147Z,4.30
2023-02-06T04:37:28.063Z,3.77
2023-02-06T04:39:54.978Z,3.60
2023-02-06T04:42:22.895Z,4.13
2023-02-06T04:44:49.940Z,4.07
2023-02-06T04:47:16.900Z,3.33
2023-02-06T04:49:46.866Z,3.30
2023-02-06T04:52:13.785Z,3.53
2023-02-06T04:54:40.682Z,3.53
2023-02-06T04:57:07.732Z,3.40
2023-02-06T04:59:34.678Z,3.97
2023-02-06T05:02:01.926Z,3.80
2023-02-06T05:04:28.959Z,3.77
2023-02-06T05:06:56.705Z,3.37
2023-02-06T05:09:23.868Z,3.80
2023-02-06T05:11:50.799Z,4.33
2023-02-06T05:14:17.914Z,3.80
2023-02-06T05:16:45.164Z,3.83
2023-02-06T05:19:12.377Z,3.73
2023-02-06T05:21:39.389Z,3.70
2023-02-06T05:24:06.476Z,4.43
2023-02-06T05:26:33.618Z,4.57
2023-02-06T05:29:00.548Z,4.30
2023-02-06T05:31:27.821Z,4.67
2023-02-06T05:33:55.211Z,4.00
2023-02-06T05:36:24.421Z,3.90
2023-02-06T05:38:51.534Z,4.63
2023-02-06T05:41:21.301Z,5.73
2023-02-06T05:43:48.186Z,4.70
2023-02-06T05:46:15.241Z,3.60
2023-02-06T05:48:42.277Z,3.60
2023-02-06T05:51:09.365Z,3.93
2023-02-06T05:53:36.651Z,3.30
2023-02-06T05:56:04.094Z,3.43
2023-02-06T05:58:31.140Z,3.57
2023-02-06T06:00:58.286Z,3.53
2023-02-06T06:03:25.489Z,4.53
2023-02-06T06:05:53.479Z,3.70
2023-02-06T06:08:21.054Z,3.50
2023-02-06T06:10:51.902Z,3.17
2023-02-06T06:13:19.536Z,3.70
2023-02-06T06:15:50.686Z,3.87
2023-02-06T06:18:19.891Z,3.50
2023-02-06T06:20:47.424Z,3.87
2023-02-06T06:23:15.121Z,3.53
2023-02-06T06:25:42.036Z,4.20
2023-02-06T06:28:09.747Z,3.63
2023-02-06T06:30:37.649Z,3.60
2023-02-06T06:33:04.902Z,7.87
2023-02-06T06:35:32.004Z,4.30
2023-02-06T06:37:58.958Z,3.53
2023-02-06T06:40:26.052Z,3.60
2023-02-06T06:42:53.149Z,4.90
2023-02-06T06:45:20.260Z,4.93
2023-02-06T06:47:47.256Z,5.77
2023-02-06T06:50:14.442Z,5.17
2023-02-06T06:52:41.572Z,4.90
2023-02-06T06:55:08.888Z,4.40
2023-02-06T06:57:35.952Z,3.47
2023-02-06T07:00:04.725Z,4.07
2023-02-06T07:02:31.680Z,4.37
2023-02-06T07:05:00.341Z,3.93
2023-02-06T07:07:27.926Z,4.57
2023-02-06T07:09:55.176Z,4.90
2023-02-06T07:12:22.452Z,4.53
2023-02-06T07:14:49.453Z,4.63
2023-02-06T07:17:16.612Z,4.10
2023-02-06T07:19:48.047Z,4.33
2023-02-06T07:22:16.116Z,3.97
2023-02-06T07:24:44.870Z,3.80
2023-02-06T07:27:12.208Z,4.07
2023-02-06T07:29:39.294Z,3.77
2023-02-06T07:32:06.865Z,4.10
2023-02-06T07:34:35.175Z,4.20
2023-02-06T07:37:04.412Z,4.00
2023-02-06T07:39:31.458Z,4.73
2023-02-06T07:41:58.487Z,3.93
2023-02-06T07:44:32.468Z,3.93
2023-02-06T07:46:59.576Z,4.20
2023-02-06T07:49:26.514Z,5.00
2023-02-06T07:51:54.321Z,4.40
2023-02-06T07:54:21.257Z,4.60
2023-02-06T07:56:48.259Z,5.30
2023-02-06T07:59:15.220Z,4.77
2023-02-06T08:01:42.367Z,5.77
2023-02-06T08:04:11.152Z,5.07
2023-02-06T08:06:45.081Z,5.27
2023-02-06T08:09:17.464Z,5.40
2023-02-06T08:11:48.019Z,5.60
2023-02-06T08:14:15.083Z,5.97
2023-02-06T08:16:42.146Z,5.67
2023-02-06T08:19:10.988Z,5.60
2023-02-06T08:21:38.896Z,5.40
2023-02-06T08:24:06.443Z,5.07
2023-02-06T08:26:33.780Z,4.77
2023-02-06T08:29:04.569Z,4.97
2023-02-06T08:31:39.095Z,5.43
2023-02-06T08:34:09.985Z,4.93
2023-02-06T08:36:37.335Z,5.30
2023-02-06T08:39:05.436Z,4.67
2023-02-06T08:41:37.174Z,5.53
2023-02-06T08:44:09.190Z,5.00
2023-02-06T08:46:36.267Z,4.77
2023-02-06T08:49:12.382Z,4.80
2023-02-06T08:51:39.438Z,4.67
2023-02-06T08:54:13.833Z,4.33
2023-02-06T08:56:40.779Z,4.60
2023-02-06T08:59:08.775Z,4.53
2023-02-06T09:01:37.341Z,4.40
2023-02-06T09:04:10.944Z,5.17
2023-02-06T09:06:43.550Z,5.57
2023-02-06T09:09:12.565Z,5.60
2023-02-06T09:11:40.587Z,4.90
2023-02-06T09:14:14.006Z,5.80
2023-02-06T09:16:41.095Z,5.17
2023-02-06T09:19:09.560Z,5.27
2023-02-06T09:21:38.543Z,5.10
2023-02-06T09:24:08.874Z,5.47
2023-02-06T09:26:58.082Z,5.60
2023-02-06T09:29:27.078Z,5.77
2023-02-06T09:31:54.116Z,6.43
2023-02-06T09:34:22.068Z,6.53
2023-02-06T09:36:49.186Z,7.63
2023-02-06T09:39:16.231Z,7.50
2023-02-06T09:41:51.115Z,7.90
2023-02-06T09:44:43.780Z,7.93
2023-02-06T09:47:39.212Z,8.23
2023-02-06T09:50:33.827Z,8.60
2023-02-06T09:53:23.936Z,8.20
2023-02-06T09:56:45.813Z,7.77
2023-02-06T09:59:32.173Z,7.70
2023-02-06T10:02:40.567Z,7.70
2023-02-06T10:05:23.848Z,7.53
2023-02-06T10:08:28.027Z,7.17
2023-02-06T10:11:00.407Z,6.63
2023-02-06T10:13:49.779Z,6.90
2023-02-06T10:16:45.685Z,6.57
2023-02-06T10:19:32.754Z,5.80
2023-02-06T10:22:11.129Z,5.70
2023-02-06T10:25:06.272Z,5.57
2023-02-06T10:27:35.479Z,5.57
2023-02-06T10:30:02.630Z,4.83
2023-02-06T10:32:58.295Z,6.00
2023-02-06T10:35:46.190Z,5.03
2023-02-06T10:38:39.275Z,5.03
2023-02-06T10:41:30.146Z,4.80
2023-02-06T10:44:23.509Z,5.00
2023-02-06T10:46:55.010Z,4.70
2023-02-06T10:49:45.752Z,4.80
2023-02-06T10:52:36.090Z,4.97
2023-02-06T10:55:25.737Z,5.07
2023-02-06T10:58:40.042Z,4.60
2023-02-06T11:01:24.994Z,5.10
2023-02-06T11:04:11.898Z,4.17
2023-02-06T11:06:42.635Z,4.10
2023-02-06T11:09:11.387Z,4.03
2023-02-06T11:11:46.602Z,5.03
2023-02-06T11:14:27.867Z,4.00
2023-02-06T11:17:00.298Z,3.90
2023-02-06T11:19:34.926Z,4.30
2023-02-06T11:22:04.968Z,3.83
2023-02-06T11:24:34.316Z,4.20
2023-02-06T11:27:12.073Z,4.13
2023-02-06T11:29:50.965Z,3.37
2023-02-06T11:32:36.507Z,4.77
2023-02-06T11:35:29.141Z,3.53
2023-02-06T11:38:17.560Z,4.30
2023-02-06T11:41:03.139Z,3.30
2023-02-06T11:43:42.245Z,3.43
2023-02-06T11:46:23.526Z,4.33
2023-02-06T11:48:57.010Z,3.43
2023-02-06T11:51:54.568Z,3.70
2023-02-06T11:54:35.133Z,3.40
2023-02-06T11:57:25.601Z,3.53
2023-02-06T12:00:21.998Z,3.60
2023-02-06T12:02:55.231Z,3.83
2023-02-06T12:05:28.935Z,3.83
2023-02-06T12:08:35.516Z,3.47
2023-02-06T12:11:12.513Z,3.13
2023-02-06T12:13:49.006Z,3.13
2023-02-06T12:16:16.945Z,3.03
2023-02-06T12:18:53.887Z,3.37
2023-02-06T12:21:53.845Z,3.00
2023-02-06T12:24:25.184Z,2.60
2023-02-06T12:26:56.210Z,3.60
2023-02-06T12:29:34.882Z,3.13
2023-02-06T12:32:20.278Z,2.70
2023-02-06T12:35:00.844Z,2.80
2023-02-06T12:37:55.309Z,3.33
2023-02-06T12:40:47.203Z,3.07
2023-02-06T12:43:17.926Z,2.70
2023-02-06T12:46:22.440Z,3.27
2023-02-06T12:49:10.994Z,3.03
2023-02-06T12:52:10.811Z,3.27
2023-02-06T12:55:22.336Z,3.63
2023-02-06T12:57:50.625Z,3.13
2023-02-06T13:01:32.141Z,2.70
2023-02-06T13:04:12.415Z,3.07
2023-02-06T13:07:05.260Z,2.57
2023-02-06T13:10:01.375Z,3.20
2023-02-06T13:12:33.808Z,3.03
2023-02-06T13:15:20.549Z,3.10
2023-02-06T13:17:47.539Z,3.07
2023-02-06T13:20:21.493Z,3.37
2023-02-06T13:23:24.451Z,2.60
2023-02-06T13:25:51.877Z,3.53
2023-02-06T13:28:28.820Z,3.67
2023-02-06T13:31:07.671Z,3.00
2023-02-06T13:33:52.472Z,2.63
2023-02-06T13:36:41.878Z,2.77
2023-02-06T13:39:27.223Z,2.80
2023-02-06T13:41:55.857Z,2.60
2023-02-06T13:44:33.809Z,3.07
2023-02-06T13:47:25.272Z,3.27
2023-02-06T13:50:23.714Z,2.90
2023-02-06T13:53:33.613Z,2.77
2023-02-06T13:56:29.113Z,3.33
2023-02-06T13:59:09.142Z,3.40
2023-02-06T14:01:36.731Z,3.70
2023-02-06T14:04:16.235Z,3.80
2023-02-06T14:07:27.521Z,2.87
2023-02-06T14:10:31.931Z,3.10
2023-02-06T14:13:17.069Z,2.90
2023-02-06T14:16:22.169Z,3.70
2023-02-06T14:19:44.018Z,2.90
2023-02-06T14:22:38.393Z,3.00
2023-02-06T14:25:42.236Z,2.70
2023-02-06T14:28:41.434Z,2.90
2023-02-06T14:31:46.149Z,2.40
2023-02-06T14:35:05.121Z,3.07
2023-02-06T14:38:17.270Z,2.77
2023-02-06T14:40:50.476Z,3.17
2023-02-06T14:43:27.034Z,3.03
2023-02-06T14:46:07.412Z,2.80
2023-02-06T14:48:58.384Z,3.13
2023-02-06T14:51:36.997Z,3.40
2023-02-06T14:54:38.501Z,3.23
2023-02-06T14:57:25.361Z,3.33
2023-02-06T15:00:02.839Z,3.67
2023-02-06T15:02:37.444Z,3.17
2023-02-06T15:05:06.037Z,3.40
2023-02-06T15:07:37.160Z,3.50
2023-02-06T15:10:11.777Z,3.33
2023-02-06T15:12:39.183Z,3.97
2023-02-06T15:15:38.748Z,3.60
2023-02-06T15:18:16.522Z,4.03
2023-02-06T15:21:04.048Z,3.80
2023-02-06T15:24:02.281Z,3.53
2023-02-06T15:27:12.626Z,3.30
2023-02-06T15:29:39.977Z,3.43
2023-02-06T15:32:31.153Z,3.77
2023-02-06T15:34:59.453Z,3.57
2023-02-06T15:37:29.423Z,3.73
2023-02-06T15:40:07.013Z,3.37
2023-02-06T15:42:36.994Z,4.07
2023-02-06T15:45:05.341Z,3.97
2023-02-06T15:47:33.309Z,4.00
2023-02-06T15:50:00.704Z,3.33
2023-02-06T15:52:42.954Z,3.17
2023-02-06T15:55:32.734Z,3.60
2023-02-06T15:58:03.786Z,3.93
2023-02-06T16:00:36.985Z,3.93
2023-02-06T16:03:09.371Z,3.67
2023-02-06T16:05:42.168Z,4.00
2023-02-06T16:08:32.981Z,3.80
2023-02-06T16:11:30.135Z,4.10
2023-02-06T16:13:59.032Z,3.63
2023-02-06T16:16:28.094Z,4.00
2023-02-06T16:18:59.246Z,4.20
2023-02-06T16:21:32.611Z,4.40
2023-02-06T16:24:07.526Z,3.83
2023-02-06T16:26:52.132Z,4.20
2023-02-06T16:29:32.832Z,4.10
2023-02-06T16:32:22.087Z,3.63
2023-02-06T16:34:49.748Z,4.20
2023-02-06T16:37:24.773Z,4.27
2023-02-06T16:39:54.923Z,4.50
2023-02-06T16:42:25.131Z,4.17
2023-02-06T16:44:59.519Z,4.13
2023-02-06T16:47:27.318Z,4.13
2023-02-06T16:49:54.326Z,4.43
2023-02-06T16:52:31.539Z,5.07
2023-02-06T16:55:00.326Z,4.10
2023-02-06T16:57:35.294Z,3.97
2023-02-06T17:00:21.751Z,4.20
2023-02-06T17:02:52.165Z,4.53
2023-02-06T17:05:23.590Z,4.93
2023-02-06T17:07:52.486Z,4.90
2023-02-06T17:10:24.361Z,4.47
2023-02-06T17:12:52.042Z,4.27
2023-02-06T17:15:20.699Z,4.47
2023-02-06T17:17:47.846Z,4.67
2023-02-06T17:20:34.148Z,4.97
2023-02-06T17:23:01.359Z,5.07
2023-02-06T17:25:28.601Z,4.80
2023-02-06T17:27:57.090Z,4.37
2023-02-06T17:30:26.407Z,4.90
2023-02-06T17:32:54.345Z,4.87
2023-02-06T17:35:21.403Z,4.93
2023-02-06T17:37:49.262Z,4.80
2023-02-06T17:40:28.244Z,4.80
2023-02-06T17:42:57.025Z,4.87
2023-02-06T17:45:26.765Z,4.73
2023-02-06T17:47:54.634Z,4.90
2023-02-06T17:50:24.897Z,5.00
2023-02-06T17:52:56.039Z,4.40
2023-02-06T17:55:24.471Z,4.77
2023-02-06T17:57:52.258Z,3.90
2023-02-06T18:00:27.630Z,4.60
2023-02-06T18:02:57.978Z,5.07
2023-02-06T18:05:26.497Z,4.57
2023-02-06T18:07:53.446Z,4.63
2023-02-06T18:10:23.731Z,3.90
2023-02-06T18:12:51.201Z,4.47
2023-02-06T18:15:19.182Z,4.93
2023-02-06T18:17:46.195Z,4.60
2023-02-06T18:20:14.610Z,5.67
2023-02-06T18:22:41.707Z,4.23
2023-02-06T18:25:11.987Z,4.67
2023-02-06T18:27:40.804Z,5.00
2023-02-06T18:30:09.641Z,4.33
2023-02-06T18:32:38.901Z,5.00
2023-02-06T18:35:08.070Z,5.00
2023-02-06T18:37:35.759Z,4.87
2023-02-06T18:40:02.981Z,4.50
2023-02-06T18:42:48.919Z,5.00
2023-02-06T18:45:15.997Z,4.50
2023-02-06T18:47:43.018Z,4.37
2023-02-06T18:50:12.739Z,5.33
2023-02-06T18:52:39.923Z,4.97
2023-02-06T18:55:08.591Z,5.80
2023-02-06T18:57:36.946Z,5.07
2023-02-06T19:00:07.497Z,5.43
2023-02-06T19:02:34.631Z,5.03
2023-02-06T19:05:02.295Z,4.77
2023-02-06T19:07:29.748Z,4.73
2023-02-06T19:09:59.253Z,4.33
2023-02-06T19:12:29.088Z,4.73
2023-02-06T19:14:58.074Z,5.30
2023-02-06T19:17:26.782Z,4.50
2023-02-06T19:19:54.627Z,6.00
2023-02-06T19:22:21.931Z,5.53
2023-02-06T19:24:51.078Z,5.40
2023-02-06T19:27:18.020Z,6.73
2023-02-06T19:29:45.307Z,5.53
2023-02-06T19:32:13.100Z,5.43
2023-02-06T19:34:42.001Z,5.77
2023-02-06T19:37:11.901Z,5.57
2023-02-06T19:39:40.368Z,6.33
2023-02-06T19:42:10.033Z,5.70
2023-02-06T19:44:37.789Z,5.07
2023-02-06T19:47:04.890Z,6.30
2023-02-06T19:49:32.148Z,6.03
2023-02-06T19:51:59.219Z,5.93
2023-02-06T19:54:26.695Z,5.93
2023-02-06T19:56:53.809Z,4.97
2023-02-06T19:59:40.954Z,5.90
2023-02-06T20:02:12.726Z,4.97
2023-02-06T20:04:39.952Z,5.07
2023-02-06T20:07:07.163Z,5.37
2023-02-06T20:09:34.629Z,4.70
2023-02-06T20:12:01.722Z,5.17
2023-02-06T20:14:29.117Z,5.40
2023-02-06T20:16:56.097Z,5.27
2023-02-06T20:19:27.188Z,5.37
2023-02-06T20:21:58.813Z,5.30
2023-02-06T20:24:32.097Z,5.43
2023-02-06T20:27:03.123Z,5.10
2023-02-06T20:29:34.926Z,5.90
2023-02-06T20:32:04.575Z,6.43
2023-02-06T20:34:32.140Z,5.47
2023-02-06T20:36:59.415Z,5.00
2023-02-06T20:39:27.552Z,5.27
2023-02-06T20:41:54.793Z,5.03
2023-02-06T20:44:21.938Z,4.87
2023-02-06T20:46:49.713Z,5.43
2023-02-06T20:49:24.331Z,5.40
2023-02-06T20:51:52.170Z,5.60
2023-02-06T20:54:21.420Z,6.37
2023-02-06T20:56:49.258Z,5.70
2023-02-06T20:59:19.974Z,6.17
2023-02-06T21:01:47.630Z,6.33
2023-02-06T21:04:16.756Z,6.87
2023-02-06T21:06:47.862Z,6.27
2023-02-06T21:09:15.519Z,6.47
2023-02-06T21:11:49.952Z,6.90
2023-02-06T21:14:21.669Z,7.17
2023-02-06T21:16:49.262Z,7.73
2023-02-06T21:19:19.888Z,7.23
2023-02-06T21:21:47.560Z,7.30
2023-02-06T21:24:17.165Z,9.13
2023-02-06T21:26:44.465Z,8.43
2023-02-06T21:29:14.159Z,8.43
2023-02-06T21:31:42.392Z,9.20
2023-02-06T21:34:21.277Z,8.97
2023-02-06T21:36:49.472Z,9.40
2023-02-06T21:39:20.643Z,8.73
2023-02-06T21:41:51.897Z,8.97
2023-02-06T21:44:24.445Z,7.67
2023-02-06T21:46:52.597Z,8.40
2023-02-06T21:49:21.101Z,8.70
2023-02-06T21:51:48.213Z,7.93
2023-02-06T21:54:15.283Z,8.10
2023-02-06T21:56:43.218Z,8.00
2023-02-06T21:59:12.411Z,7.67
2023-02-06T22:01:41.109Z,8.00
2023-02-06T22:04:11.833Z,9.00
2023-02-06T22:06:39.379Z,9.07
2023-02-06T22:09:11.403Z,8.00
2023-02-06T22:11:39.998Z,8.20
2023-02-06T22:14:12.177Z,8.20
2023-02-06T22:16:40.624Z,9.00
2023-02-06T22:19:09.665Z,9.17
2023-02-06T22:21:36.899Z,9.70
2023-02-06T22:24:07.590Z,9.53
2023-02-06T22:26:38.626Z,8.77
2023-02-06T22:29:10.631Z,8.53
2023-02-06T22:31:40.880Z,9.50
2023-02-06T22:34:11.812Z,9.80
2023-02-06T22:36:39.554Z,9.70
2023-02-06T22:39:08.640Z,8.97
2023-02-06T22:41:40.529Z,8.73
2023-02-06T22:44:08.674Z,9.70
2023-02-06T22:46:38.147Z,9.10
2023-02-06T22:49:07.385Z,9.90
2023-02-06T22:51:35.489Z,8.33
2023-02-06T22:54:02.909Z,8.33
2023-02-06T22:56:36.186Z,8.30
2023-02-06T22:59:12.465Z,9.30
2023-02-06T23:01:47.357Z,9.47
2023-02-06T23:04:21.719Z,8.87
2023-02-06T23:06:50.140Z,8.60
2023-02-06T23:09:27.377Z,10.33
2023-02-06T23:11:58.194Z,10.40
2023-02-06T23:14:26.889Z,9.47
2023-02-06T23:16:54.281Z,10.87
2023-02-06T23:19:21.331Z,9.67
2023-02-06T23:21:51.233Z,9.83
2023-02-06T23:24:20.468Z,9.67
2023-02-06T23:26:50.963Z,10.20
2023-02-06T23:29:21.852Z,9.50
2023-02-06T23:31:50.078Z,11.03
2023-02-06T23:34:24.426Z,10.10
2023-02-06T23:36:51.992Z,8.67
2023-02-06T23:39:21.344Z,8.87
2023-02-06T23:41:48.399Z,9.23
2023-02-06T23:44:15.300Z,8.93
2023-02-06T23:46:42.551Z,9.47
2023-02-06T23:49:10.257Z,9.63
2023-02-06T23:51:38.247Z,9.20
2023-02-06T23:54:07.304Z,8.90
2023-02-06T23:56:35.155Z,9.67
2023-02-06T23:59:04.659Z,9.90
